Time;durP1;ratioP1;P1;durP2;ratioP2;P2;SDS_P1;SDS_P2;PMS_P1;PMS_P2;Temp;Humidity;BMP_temperature;BMP_pressure;BME280_temperature;BME280_humidity;BME280_pressure;Samples;Min_cycle;Max_cycle;Signal;HPM_P1;HPM_P2
2021/01/02 00:00:51;;;;;;;30.35;16.98;;;4.40;99.90;;;;;;5057654;28;20021;-59
2021/01/02 00:03:35;;;;;;;28.90;15.82;;;4.40;99.90;;;;;;5057462;28;20510;-59
2021/01/02 00:06:31;;;;;;;31.38;16.23;;;4.40;99.90;;;;;;5055564;28;20021;-67
2021/01/02 00:09:04;;;;;;;26.35;15.02;;;4.40;99.90;;;;;;5056476;28;20025;-66
2021/01/02 00:11:53;;;;;;;27.13;16.70;;;4.40;99.90;;;;;;5055953;28;20094;-60
2021/01/02 00:14:33;;;;;;;33.75;19.52;;;4.40;99.90;;;;;;5055083;28;20021;-64
2021/01/02 00:17:23;;;;;;;52.08;27.95;;;4.40;99.90;;;;;;5054694;28;20060;-59
2021/01/02 00:19:54;;;;;;;42.05;22.80;;;4.40;99.90;;;;;;5055967;28;20095;-62
2021/01/02 00:22:40;;;;;;;28.83;17.52;;;4.40;99.90;;;;;;5054080;28;20466;-59
2021/01/02 00:25:11;;;;;;;28.33;15.15;;;4.40;99.90;;;;;;5053977;28;20029;-59
2021/01/02 00:27:52;;;;;;;27.98;14.93;;;4.30;99.90;;;;;;5055894;28;20103;-59
2021/01/02 00:30:40;;;;;;;25.65;13.93;;;4.30;99.90;;;;;;5054730;28;20025;-61
2021/01/02 00:33:21;;;;;;;29.77;14.65;;;4.40;99.90;;;;;;5044306;28;20128;-59
2021/01/02 00:35:49;;;;;;;25.95;14.50;;;4.50;99.90;;;;;;5055087;28;20025;-60
2021/01/02 00:38:15;;;;;;;27.10;15.25;;;4.50;99.90;;;;;;5054714;28;20527;-58
2021/01/02 00:40:41;;;;;;;27.75;14.93;;;4.60;99.90;;;;;;5055003;28;20021;-58
2021/01/02 00:43:07;;;;;;;25.42;15.20;;;4.50;99.90;;;;;;5054651;28;20489;-60
2021/01/02 00:45:33;;;;;;;24.52;15.43;;;4.60;99.90;;;;;;5055453;28;20033;-60
2021/01/02 00:48:03;;;;;;;22.20;14.35;;;4.50;99.90;;;;;;5053964;28;20047;-61
2021/01/02 00:50:29;;;;;;;24.27;14.48;;;4.40;99.90;;;;;;5053794;28;20076;-59
2021/01/02 00:53:21;;;;;;;28.13;15.30;;;4.40;99.90;;;;;;5053774;28;20455;-59
2021/01/02 00:55:58;;;;;;;26.35;14.57;;;4.50;99.90;;;;;;5053748;28;20025;-59
2021/01/02 00:58:45;;;;;;;26.27;15.80;;;4.40;99.90;;;;;;5054570;28;20312;-59
2021/01/02 01:01:19;;;;;;;27.77;15.48;;;4.40;99.90;;;;;;5054323;28;20477;-62
2021/01/02 01:04:22;;;;;;;24.20;14.90;;;4.40;99.90;;;;;;5053877;28;20454;-58
2021/01/02 01:06:54;;;;;;;25.27;15.00;;;4.50;99.90;;;;;;5053533;28;20033;-63
2021/01/02 01:09:24;;;;;;;25.48;15.18;;;4.50;99.90;;;;;;5051982;28;20071;-60
2021/01/02 01:11:54;;;;;;;27.88;15.35;;;4.60;99.90;;;;;;5053462;28;20025;-62
2021/01/02 01:14:21;;;;;;;25.23;15.88;;;4.60;99.90;;;;;;5052667;28;20025;-60
2021/01/02 01:16:50;;;;;;;24.23;14.52;;;4.60;99.90;;;;;;5054682;28;20037;-61
2021/01/02 01:19:24;;;;;;;24.08;14.88;;;4.70;99.90;;;;;;5053929;28;20033;-61
2021/01/02 01:21:51;;;;;;;25.33;15.40;;;4.50;99.90;;;;;;5053592;28;20036;-61
2021/01/02 01:24:41;;;;;;;26.35;15.25;;;4.40;99.90;;;;;;5052818;28;20079;-61
2021/01/02 01:27:28;;;;;;;24.45;14.73;;;4.40;99.90;;;;;;5054859;28;20031;-59
2021/01/02 01:30:01;;;;;;;26.92;16.08;;;4.50;99.90;;;;;;5055011;28;20372;-60
2021/01/02 01:32:28;;;;;;;23.65;14.40;;;4.50;99.90;;;;;;5054602;28;20120;-60
2021/01/02 01:34:59;;;;;;;25.85;15.13;;;4.40;99.90;;;;;;5054315;28;20025;-60
2021/01/02 01:37:30;;;;;;;24.88;15.05;;;4.50;99.90;;;;;;5053759;28;20040;-59
2021/01/02 01:39:56;;;;;;;25.70;15.77;;;4.40;99.90;;;;;;5052995;28;20359;-58
2021/01/02 01:42:43;;;;;;;25.50;16.85;;;4.40;99.90;;;;;;5052103;28;20104;-60
2021/01/02 01:45:20;;;;;;;24.55;14.63;;;4.40;99.90;;;;;;5053542;28;20037;-61
2021/01/02 01:48:18;;;;;;;23.90;15.23;;;4.40;99.90;;;;;;5052605;28;20032;-59
2021/01/02 01:51:03;;;;;;;22.73;14.50;;;4.30;99.90;;;;;;5053090;28;20163;-60
2021/01/02 01:53:28;;;;;;;24.05;15.10;;;4.40;99.90;;;;;;5052192;28;20029;-60
2021/01/02 01:56:02;;;;;;;26.65;15.18;;;4.30;99.90;;;;;;5052661;28;20163;-59
2021/01/02 01:58:40;;;;;;;25.48;14.82;;;4.30;99.90;;;;;;5051950;28;20041;-60
2021/01/02 02:01:06;;;;;;;29.38;17.58;;;4.40;99.90;;;;;;5054326;28;20513;-59
2021/01/02 02:03:47;;;;;;;25.58;16.23;;;4.40;99.90;;;;;;5051891;28;20025;-58
2021/01/02 02:06:45;;;;;;;27.05;15.60;;;4.40;99.90;;;;;;5052674;28;20475;-58
2021/01/02 02:09:21;;;;;;;23.90;14.13;;;4.30;99.90;;;;;;5048864;28;20056;-63
2021/01/02 02:12:04;;;;;;;27.63;15.35;;;4.30;99.90;;;;;;5053784;28;20028;-59
2021/01/02 02:14:59;;;;;;;26.88;16.08;;;4.40;99.90;;;;;;5051412;28;20028;-59
2021/01/02 02:17:43;;;;;;;25.60;15.18;;;4.30;99.90;;;;;;5051982;28;20032;-58
2021/01/02 02:20:16;;;;;;;24.65;14.57;;;4.40;99.90;;;;;;5051577;28;20033;-66
2021/01/02 02:22:43;;;;;;;26.20;15.48;;;4.30;99.90;;;;;;5052571;28;20355;-61
2021/01/02 02:25:15;;;;;;;26.13;14.55;;;4.30;99.90;;;;;;5053111;28;20029;-70
2021/01/02 02:27:46;;;;;;;23.13;14.35;;;4.40;99.90;;;;;;5053403;28;20035;-62
2021/01/02 02:30:13;;;;;;;28.90;15.23;;;4.50;99.90;;;;;;5051932;28;20475;-60
2021/01/02 02:32:44;;;;;;;29.08;16.02;;;4.40;99.90;;;;;;5052361;28;20032;-60
2021/01/02 02:35:16;;;;;;;25.80;15.40;;;4.40;99.90;;;;;;5051808;28;20036;-60
2021/01/02 02:37:50;;;;;;;29.15;16.05;;;4.40;99.90;;;;;;5053686;28;20498;-60
2021/01/02 02:40:18;;;;;;;25.17;14.68;;;4.40;99.90;;;;;;5052440;28;20036;-60
2021/01/02 02:43:01;;;;;;;26.75;15.02;;;4.40;99.90;;;;;;5052845;28;20410;-59
2021/01/02 02:45:29;;;;;;;26.55;14.88;;;4.40;99.90;;;;;;5051081;28;20111;-58
2021/01/02 02:48:02;;;;;;;29.48;15.45;;;4.50;99.90;;;;;;5052638;28;20048;-59
2021/01/02 02:50:30;;;;;;;27.60;15.75;;;4.40;99.90;;;;;;5034382;28;20453;-58
2021/01/02 02:53:10;;;;;;;25.73;14.93;;;4.30;99.90;;;;;;5052570;28;20028;-63
2021/01/02 02:55:37;;;;;;;27.00;15.57;;;4.10;99.90;;;;;;5051689;28;20025;-59
2021/01/02 02:58:03;;;;;;;30.63;17.60;;;4.20;99.90;;;;;;5051467;28;20029;-58
2021/01/02 03:00:29;;;;;;;28.27;16.73;;;4.20;99.90;;;;;;5050903;28;20371;-59
2021/01/02 03:02:55;;;;;;;28.13;15.68;;;4.10;99.90;;;;;;5050898;28;20032;-59
2021/01/02 03:05:20;;;;;;;26.33;15.73;;;4.10;99.90;;;;;;5052570;28;20071;-62
2021/01/02 03:07:48;;;;;;;27.15;16.63;;;4.20;99.90;;;;;;5051913;28;20053;-59
2021/01/02 03:10:16;;;;;;;26.98;15.52;;;4.30;99.90;;;;;;5051044;28;20060;-60
2021/01/02 03:12:47;;;;;;;30.52;16.90;;;4.30;99.90;;;;;;5051636;28;20025;-59
2021/01/02 03:15:14;;;;;;;30.52;17.25;;;4.40;99.90;;;;;;5052542;28;20480;-62
2021/01/02 03:17:41;;;;;;;29.98;14.98;;;4.40;99.90;;;;;;5051673;28;20366;-58
2021/01/02 03:20:07;;;;;;;26.30;16.30;;;4.40;99.90;;;;;;5051411;28;20021;-60
2021/01/02 03:22:33;;;;;;;30.38;16.88;;;4.40;99.90;;;;;;5052189;28;20067;-65
2021/01/02 03:24:59;;;;;;;32.17;17.88;;;4.40;99.90;;;;;;5051648;28;20021;-59
2021/01/02 03:27:24;;;;;;;34.53;18.00;;;4.30;99.90;;;;;;5051220;28;20025;-60
2021/01/02 03:29:50;;;;;;;26.55;15.02;;;4.40;99.90;;;;;;5052731;28;20048;-61
2021/01/02 03:32:15;;;;;;;32.88;15.75;;;4.30;99.90;;;;;;5051592;28;20096;-59
2021/01/02 03:34:41;;;;;;;28.63;17.27;;;4.20;99.90;;;;;;5056553;28;20040;-60
2021/01/02 03:37:08;;;;;;;25.38;14.75;;;4.10;99.90;;;;;;5055643;28;20027;-65
2021/01/02 03:39:34;;;;;;;28.05;15.73;;;4.10;99.90;;;;;;5056645;28;20091;-64
2021/01/02 03:42:00;;;;;;;23.98;15.57;;;4.10;99.90;;;;;;5055883;28;20025;-60
2021/01/02 03:44:25;;;;;;;27.02;16.00;;;4.20;99.90;;;;;;5056599;28;20021;-63
2021/01/02 03:46:51;;;;;;;31.88;17.25;;;4.20;99.90;;;;;;5057088;28;20417;-61
2021/01/02 03:49:16;;;;;;;23.13;15.75;;;4.10;99.90;;;;;;5054725;28;20087;-64
2021/01/02 03:51:42;;;;;;;27.45;17.08;;;4.20;99.90;;;;;;5055905;28;20036;-65
2021/01/02 03:54:08;;;;;;;29.85;16.58;;;4.20;99.90;;;;;;5057155;28;20029;-62
2021/01/02 03:56:33;;;;;;;27.48;16.13;;;4.20;99.90;;;;;;5056129;28;20652;-61
2021/01/02 03:58:59;;;;;;;28.83;16.13;;;4.30;99.90;;;;;;5055031;28;20108;-59
2021/01/02 04:01:25;;;;;;;29.25;15.95;;;4.10;99.90;;;;;;5054393;28;20355;-61
2021/01/02 04:03:50;;;;;;;30.13;16.92;;;4.10;99.90;;;;;;5054874;28;20074;-60
2021/01/02 04:06:24;;;;;;;29.13;16.25;;;4.20;99.90;;;;;;5055277;28;20036;-60
2021/01/02 04:08:50;;;;;;;27.80;16.60;;;4.10;99.90;;;;;;5054874;28;20363;-60
2021/01/02 04:11:15;;;;;;;27.63;16.33;;;4.10;99.90;;;;;;5054022;28;20040;-65
2021/01/02 04:13:41;;;;;;;26.02;15.63;;;4.10;99.90;;;;;;5055253;28;20028;-65
2021/01/02 04:16:06;;;;;;;26.42;16.13;;;3.90;99.90;;;;;;5055364;28;20033;-60
2021/01/02 04:18:33;;;;;;;28.23;16.58;;;3.90;99.90;;;;;;5055815;28;20032;-67
2021/01/02 04:20:58;;;;;;;27.75;16.92;;;3.70;99.90;;;;;;5056478;28;20451;-60
2021/01/02 04:23:25;;;;;;;26.90;15.90;;;3.70;99.90;;;;;;5054436;28;20025;-65
2021/01/02 04:25:51;;;;;;;30.30;15.35;;;3.80;99.90;;;;;;5054681;28;20033;-62
2021/01/02 04:28:16;;;;;;;31.50;16.25;;;3.80;99.90;;;;;;5054264;28;20039;-67
2021/01/02 04:30:42;;;;;;;28.33;17.38;;;3.80;99.90;;;;;;5056005;28;20041;-60
2021/01/02 04:33:08;;;;;;;26.45;15.90;;;3.90;99.90;;;;;;5054679;28;20462;-68
2021/01/02 04:35:34;;;;;;;28.40;15.88;;;3.90;99.90;;;;;;5055759;28;20017;-61
2021/01/02 04:38:03;;;;;;;28.13;15.93;;;3.90;99.90;;;;;;5055802;28;20036;-62
2021/01/02 04:40:30;;;;;;;30.77;16.13;;;3.90;99.90;;;;;;5055045;28;20029;-59
2021/01/02 04:42:56;;;;;;;29.73;16.70;;;4.00;99.90;;;;;;5054434;28;20074;-59
2021/01/02 04:45:21;;;;;;;25.08;14.45;;;4.00;99.90;;;;;;5053660;28;20040;-61
2021/01/02 04:47:49;;;;;;;26.10;15.75;;;4.00;99.90;;;;;;5055197;28;20029;-59
2021/01/02 04:50:14;;;;;;;27.60;16.95;;;4.00;99.90;;;;;;5055636;28;20393;-59
2021/01/02 04:52:41;;;;;;;29.33;17.58;;;4.00;99.90;;;;;;5054731;28;20096;-60
2021/01/02 04:55:08;;;;;;;27.60;15.90;;;4.10;99.90;;;;;;5055200;28;20056;-60
2021/01/02 04:57:38;;;;;;;29.08;16.58;;;4.10;99.90;;;;;;5054244;28;20037;-60
2021/01/02 05:00:07;;;;;;;26.30;16.50;;;4.10;99.90;;;;;;5055085;28;20028;-59
2021/01/02 05:02:38;;;;;;;30.15;16.05;;;4.00;99.90;;;;;;5053494;28;20032;-58
2021/01/02 05:05:06;;;;;;;31.40;16.10;;;4.00;99.90;;;;;;5055133;28;20032;-61
2021/01/02 05:07:32;;;;;;;25.15;15.13;;;4.00;99.90;;;;;;5054549;28;20021;-58
2021/01/02 05:09:59;;;;;;;24.77;14.57;;;4.00;99.90;;;;;;5054454;28;20040;-59
2021/01/02 05:12:35;;;;;;;28.65;15.82;;;4.00;99.90;;;;;;5053879;28;20363;-60
2021/01/02 05:15:02;;;;;;;28.08;15.65;;;4.00;99.90;;;;;;5053310;28;20036;-61
2021/01/02 05:17:30;;;;;;;23.38;14.52;;;4.00;99.90;;;;;;5052874;28;20153;-61
2021/01/02 05:20:03;;;;;;;24.30;14.55;;;4.00;99.90;;;;;;5054546;28;20021;-63
2021/01/02 05:22:29;;;;;;;27.77;15.50;;;4.00;99.90;;;;;;5054007;28;20033;-59
2021/01/02 05:25:06;;;;;;;26.48;15.98;;;4.00;99.90;;;;;;5052974;28;20171;-62
2021/01/02 05:27:33;;;;;;;29.05;15.82;;;4.00;99.90;;;;;;5053644;28;20025;-59
2021/01/02 05:30:15;;;;;;;30.73;15.88;;;4.10;99.90;;;;;;5053145;28;20037;-59
2021/01/02 05:32:59;;;;;;;;;;;4.10;99.90;;;;;;5054572;28;20071;-60
2021/01/02 05:35:45;;;;;;;25.15;13.40;;;4.00;99.90;;;;;;5052398;28;19914;-58
2021/01/02 05:38:15;;;;;;;29.63;16.50;;;4.00;99.90;;;;;;5054440;28;20068;-65
2021/01/02 05:40:45;;;;;;;25.33;14.68;;;4.00;99.90;;;;;;5054037;28;20478;-61
2021/01/02 05:43:12;;;;;;;22.45;13.68;;;4.10;99.90;;;;;;5053874;28;20086;-60
2021/01/02 05:45:39;;;;;;;26.67;13.73;;;4.10;99.90;;;;;;5053350;28;20029;-59
2021/01/02 05:48:23;;;;;;;26.05;15.98;;;4.10;99.90;;;;;;5054376;28;20082;-62
2021/01/02 05:50:55;;;;;;;26.40;14.65;;;4.10;99.90;;;;;;5052820;28;20091;-61
2021/01/02 05:53:24;;;;;;;24.20;14.65;;;4.10;99.90;;;;;;5053449;28;20052;-68
2021/01/02 05:56:20;;;;;;;29.25;15.30;;;4.10;99.90;;;;;;5052913;28;20473;-60
2021/01/02 05:58:46;;;;;;;19.60;12.98;;;4.10;99.90;;;;;;5048649;28;20037;-59
2021/01/02 06:01:19;;;;;;;25.83;14.80;;;4.20;99.90;;;;;;5053781;28;20025;-59
2021/01/02 06:03:48;;;;;;;25.23;14.05;;;3.90;99.90;;;;;;5051977;28;20029;-57
2021/01/02 06:06:16;;;;;;;27.50;13.95;;;4.00;99.90;;;;;;5053540;28;20040;-58
2021/01/02 06:08:46;;;;;;;24.92;14.27;;;4.00;99.90;;;;;;5051673;28;20041;-59
2021/01/02 06:11:14;;;;;;;22.63;12.85;;;4.10;99.90;;;;;;5054764;28;20044;-68
2021/01/02 06:13:42;;;;;;;28.10;14.68;;;4.10;99.90;;;;;;5052923;28;20047;-60
2021/01/02 06:16:09;;;;;;;22.17;13.68;;;4.00;99.90;;;;;;5054194;28;20032;-60
2021/01/02 06:18:40;;;;;;;24.55;14.23;;;3.80;99.90;;;;;;5052212;28;20390;-60
2021/01/02 06:21:17;;;;;;;23.15;12.68;;;3.60;99.90;;;;;;5053560;28;20025;-59
2021/01/02 06:23:45;;;;;;;24.85;14.35;;;3.60;99.90;;;;;;5052992;28;20249;-59
2021/01/02 06:26:12;;;;;;;25.58;14.98;;;3.60;99.90;;;;;;5052497;28;20029;-65
2021/01/02 06:28:43;;;;;;;23.73;14.40;;;3.50;99.90;;;;;;5053169;28;20037;-61
2021/01/02 06:31:16;;;;;;;25.73;13.95;;;3.60;99.90;;;;;;5052518;28;20482;-60
2021/01/02 06:33:50;;;;;;;23.88;13.88;;;3.70;99.90;;;;;;5051518;28;20029;-59
2021/01/02 06:36:29;;;;;;;29.98;15.10;;;3.80;99.90;;;;;;5051950;28;20032;-60
2021/01/02 06:39:28;;;;;;;27.90;15.50;;;3.70;99.90;;;;;;5051843;28;20368;-64
2021/01/02 06:41:56;;;;;;;25.38;13.55;;;3.70;99.90;;;;;;5053195;28;20053;-60
2021/01/02 06:44:45;;;;;;;28.58;14.85;;;3.40;99.90;;;;;;5052860;28;20526;-60
2021/01/02 06:47:22;;;;;;;26.70;14.57;;;3.40;99.90;;;;;;5051687;28;20029;-59
2021/01/02 06:49:51;;;;;;;26.05;14.98;;;3.50;99.90;;;;;;5050886;28;20048;-59
2021/01/02 06:52:36;;;;;;;24.42;14.23;;;3.60;99.90;;;;;;5051948;28;20072;-62
2021/01/02 06:55:21;;;;;;;25.77;14.15;;;3.60;99.90;;;;;;5051737;28;20036;-61
2021/01/02 06:57:48;;;;;;;21.98;13.52;;;3.70;99.90;;;;;;5052440;28;20029;-60
2021/01/02 07:00:28;;;;;;;23.70;14.07;;;3.70;99.90;;;;;;5052821;28;20036;-60
2021/01/02 07:02:54;;;;;;;25.92;15.35;;;3.70;99.90;;;;;;5051375;28;20025;-59
2021/01/02 07:05:42;;;;;;;28.42;14.45;;;3.70;99.90;;;;;;5051385;28;20025;-59
2021/01/02 07:08:44;;;;;;;26.60;14.75;;;3.70;99.90;;;;;;5051993;28;20103;-59
2021/01/02 07:11:19;;;;;;;28.98;16.45;;;3.60;99.90;;;;;;5052801;28;20025;-59
2021/01/02 07:13:45;;;;;;;23.73;14.77;;;3.70;99.90;;;;;;5052180;28;20036;-62
2021/01/02 07:16:34;;;;;;;32.45;16.63;;;3.70;99.90;;;;;;5052927;28;20037;-62
2021/01/02 07:18:59;;;;;;;24.52;15.75;;;3.60;99.90;;;;;;5051750;28;20040;-61
2021/01/02 07:21:37;;;;;;;27.73;15.75;;;3.60;99.90;;;;;;5052478;28;20078;-59
2021/01/02 07:24:30;;;;;;;25.13;15.63;;;3.60;99.90;;;;;;5052493;28;20108;-59
2021/01/02 07:27:03;;;;;;;27.00;15.13;;;3.50;99.90;;;;;;5051271;28;20033;-59
2021/01/02 07:29:32;;;;;;;26.70;14.85;;;3.50;99.90;;;;;;5050610;28;20036;-60
2021/01/02 07:32:15;;;;;;;35.63;17.77;;;3.50;99.90;;;;;;5051285;28;20403;-59
2021/01/02 07:34:56;;;;;;;28.95;15.32;;;3.50;99.90;;;;;;5051253;28;20055;-60
2021/01/02 07:37:24;;;;;;;26.92;15.73;;;3.60;99.90;;;;;;5052928;28;20104;-60
2021/01/02 07:40:10;;;;;;;28.10;16.15;;;3.50;99.90;;;;;;5052306;28;20029;-61
2021/01/02 07:42:38;;;;;;;27.98;15.10;;;3.50;99.90;;;;;;5052293;28;20417;-60
2021/01/02 07:45:11;;;;;;;28.80;16.15;;;3.50;99.90;;;;;;5054667;28;20474;-63
2021/01/02 07:47:48;;;;;;;28.15;15.57;;;3.50;99.90;;;;;;5052520;28;20031;-61
2021/01/02 07:50:16;;;;;;;28.00;16.08;;;3.50;99.90;;;;;;5053603;28;20132;-59
2021/01/02 07:52:52;;;;;;;31.08;16.17;;;3.50;99.90;;;;;;5051047;28;20025;-60
2021/01/02 07:55:44;;;;;;;31.05;17.05;;;3.50;99.90;;;;;;5052346;28;20401;-59
2021/01/02 07:58:10;;;;;;;30.30;17.13;;;3.60;99.90;;;;;;5049068;28;20544;-59
2021/01/02 08:00:35;;;;;;;27.08;13.75;;;3.60;99.90;;;;;;5051630;28;20029;-62
2021/01/02 08:03:03;;;;;;;30.38;15.20;;;3.60;99.90;;;;;;5050885;28;20355;-58
2021/01/02 08:05:29;;;;;;;29.25;16.17;;;3.60;99.90;;;;;;5050854;28;20033;-64
2021/01/02 08:07:56;;;;;;;26.40;14.25;;;3.70;99.90;;;;;;5052358;28;20033;-61
2021/01/02 08:10:22;;;;;;;25.55;14.52;;;3.70;99.90;;;;;;5052386;28;20021;-61
2021/01/02 08:12:50;;;;;;;27.95;14.90;;;3.80;99.90;;;;;;5050243;28;20075;-61
2021/01/02 08:15:27;;;;;;;28.23;14.32;;;3.80;99.90;;;;;;5050691;28;20059;-61
2021/01/02 08:17:53;;;;;;;28.85;15.07;;;3.80;99.90;;;;;;5051952;28;20025;-61
2021/01/02 08:20:19;;;;;;;25.77;14.60;;;3.80;99.90;;;;;;5056144;28;20167;-60
2021/01/02 08:22:44;;;;;;;25.90;14.10;;;3.80;99.90;;;;;;5053922;28;20481;-59
2021/01/02 08:25:20;;;;;;;25.70;13.68;;;3.80;99.90;;;;;;5055861;28;20077;-59
2021/01/02 08:27:48;;;;;;;28.33;15.05;;;3.90;99.90;;;;;;5053875;28;20036;-60
2021/01/02 08:30:15;;;;;;;35.47;14.90;;;3.90;99.90;;;;;;5055608;28;20102;-59
2021/01/02 08:32:50;;;;;;;32.15;15.18;;;3.90;99.90;;;;;;5053199;28;20029;-62
2021/01/02 08:35:22;;;;;;;23.38;12.60;;;3.80;99.90;;;;;;5055636;28;20036;-61
2021/01/02 08:37:49;;;;;;;24.92;15.10;;;4.00;99.90;;;;;;5053645;28;20147;-60
2021/01/02 08:40:17;;;;;;;23.50;13.35;;;3.90;99.90;;;;;;5055340;28;20021;-59
2021/01/02 08:42:44;;;;;;;25.40;14.77;;;3.90;99.90;;;;;;5054088;28;20025;-59
2021/01/02 08:45:13;;;;;;;24.55;14.18;;;4.10;99.90;;;;;;5055594;28;20040;-60
2021/01/02 08:47:40;;;;;;;24.45;14.15;;;4.20;99.90;;;;;;5055301;28;20032;-61
2021/01/02 08:50:14;;;;;;;19.65;12.25;;;4.30;99.90;;;;;;5054559;28;20056;-61
2021/01/02 08:52:41;;;;;;;21.40;13.88;;;4.30;99.90;;;;;;5053743;28;20493;-60
2021/01/02 08:55:15;;;;;;;25.98;12.95;;;4.40;99.90;;;;;;5054232;28;20417;-60
2021/01/02 08:58:00;;;;;;;24.10;13.32;;;4.50;99.90;;;;;;5054370;28;20450;-61
2021/01/02 09:00:29;;;;;;;18.30;11.38;;;4.60;99.90;;;;;;5054087;28;20121;-61
2021/01/02 09:02:54;;;;;;;19.98;11.45;;;4.90;99.90;;;;;;5054605;28;20025;-60
2021/01/02 09:05:36;;;;;;;17.38;10.98;;;5.20;99.90;;;;;;5053391;28;20023;-60
2021/01/02 09:08:10;;;;;;;19.63;10.23;;;5.50;99.90;;;;;;5054917;28;20056;-61
2021/01/02 09:10:43;;;;;;;18.05;9.73;;;5.80;99.90;;;;;;5053031;28;20040;-60
2021/01/02 09:13:24;;;;;;;15.50;9.20;;;7.00;99.90;;;;;;5053647;28;20029;-61
2021/01/02 09:15:49;;;;;;;17.73;10.35;;;7.20;99.90;;;;;;5052554;28;20385;-60
2021/01/02 09:18:36;;;;;;;17.30;11.20;;;7.10;99.90;;;;;;5053131;28;20117;-62
2021/01/02 09:21:31;;;;;;;16.38;10.52;;;7.20;99.90;;;;;;5053704;28;20483;-62
2021/01/02 09:23:57;;;;;;;25.33;11.70;;;7.30;99.90;;;;;;5014237;28;20152;-62
2021/01/02 09:26:33;;;;;;;21.27;10.32;;;7.40;99.90;;;;;;5014971;28;20498;-61
2021/01/02 09:29:01;;;;;;;22.33;11.57;;;7.20;99.90;;;;;;5030558;28;20053;-60
2021/01/02 09:31:27;;;;;;;16.02;10.45;;;7.10;99.90;;;;;;5014360;28;20030;-62
2021/01/02 09:33:53;;;;;;;18.83;11.30;;;7.10;99.90;;;;;;5014131;28;20394;-60
2021/01/02 09:36:21;;;;;;;19.00;11.02;;;7.00;99.90;;;;;;5015029;28;20037;-59
2021/01/02 09:38:48;;;;;;;20.65;11.98;;;6.90;99.90;;;;;;5030743;28;20037;-60
2021/01/02 09:41:20;;;;;;;19.85;11.55;;;6.70;99.90;;;;;;5014755;28;20040;-60
2021/01/02 09:43:45;;;;;;;22.58;12.13;;;6.60;99.90;;;;;;5028697;28;20036;-67
2021/01/02 09:46:17;;;;;;;18.92;10.43;;;6.30;99.90;;;;;;5012959;28;20395;-61
2021/01/02 09:48:44;;;;;;;;;;;6.50;99.90;;;;;;5013223;28;20040;-62
2021/01/02 09:51:10;;;;;;;21.02;11.38;;;6.60;99.90;;;;;;5039909;28;19992;-64
2021/01/02 09:53:36;;;;;;;20.42;12.35;;;6.60;99.90;;;;;;5014523;28;20116;-66
2021/01/02 09:56:02;;;;;;;21.05;12.93;;;6.50;99.90;;;;;;5015579;28;20116;-62
2021/01/02 09:58:27;;;;;;;18.52;10.85;;;6.40;99.90;;;;;;5016369;28;20079;-65
2021/01/02 10:00:53;;;;;;;21.08;11.13;;;6.40;99.90;;;;;;5040041;28;20069;-60
2021/01/02 10:03:19;;;;;;;21.25;11.27;;;6.40;99.90;;;;;;5023090;28;20025;-60
2021/01/02 10:05:44;;;;;;;18.50;11.07;;;6.30;99.90;;;;;;5011593;28;20030;-60
2021/01/02 10:08:10;;;;;;;18.58;11.55;;;6.40;99.90;;;;;;5012974;28;20460;-63
2021/01/02 10:10:36;;;;;;;20.65;11.32;;;6.50;99.90;;;;;;5013678;28;20101;-67
2021/01/02 10:13:02;;;;;;;22.73;10.07;;;6.40;99.90;;;;;;5014725;28;20060;-60
2021/01/02 10:15:29;;;;;;;16.60;9.77;;;6.30;99.90;;;;;;5010642;28;20514;-59
2021/01/02 10:17:55;;;;;;;25.50;10.80;;;6.30;99.90;;;;;;5016189;28;20025;-59
2021/01/02 10:20:21;;;;;;;17.48;10.43;;;6.40;99.90;;;;;;5015198;28;20472;-60
2021/01/02 10:22:47;;;;;;;15.57;9.75;;;6.40;99.90;;;;;;5014319;28;20029;-58
2021/01/02 10:25:13;;;;;;;20.30;10.68;;;6.50;99.90;;;;;;5027837;28;20478;-59
2021/01/02 10:27:39;;;;;;;13.82;9.15;;;6.30;99.90;;;;;;5013755;28;20124;-69
2021/01/02 10:30:09;;;;;;;14.23;8.07;;;6.20;99.90;;;;;;5017538;28;20042;-60
2021/01/02 10:32:34;;;;;;;14.75;8.25;;;6.40;99.90;;;;;;5014939;28;20548;-61
2021/01/02 10:35:00;;;;;;;12.88;8.13;;;6.30;99.90;;;;;;5013632;28;20124;-61
2021/01/02 10:37:28;;;;;;;16.65;8.23;;;6.20;99.90;;;;;;5062122;28;20113;-58
2021/01/02 10:39:54;;;;;;;12.68;8.02;;;6.30;99.90;;;;;;5016156;28;20032;-60
2021/01/02 10:42:29;;;;;;;12.35;7.35;;;6.30;99.90;;;;;;5018450;28;20038;-59
2021/01/02 10:44:56;;;;;;;10.65;6.57;;;6.30;99.70;;;;;;5011747;28;20455;-63
2021/01/02 10:47:25;;;;;;;12.10;6.85;;;6.30;99.40;;;;;;5016031;28;20026;-58
2021/01/02 10:49:51;;;;;;;11.27;6.78;;;6.30;99.50;;;;;;5052763;28;20445;-61
2021/01/02 10:52:27;;;;;;;13.27;7.07;;;6.20;99.30;;;;;;5045940;28;20052;-64
2021/01/02 10:54:55;;;;;;;12.20;7.40;;;6.40;99.40;;;;;;5051476;28;20025;-62
2021/01/02 10:57:27;;;;;;;20.35;7.20;;;6.70;99.90;;;;;;5052661;28;20464;-63
2021/01/02 10:59:54;;;;;;;10.50;6.13;;;7.00;99.90;;;;;;5071029;28;20028;-62
2021/01/02 11:02:20;;;;;;;11.40;7.43;;;7.00;99.20;;;;;;5071997;28;20043;-58
2021/01/02 11:04:47;;;;;;;15.02;8.45;;;6.90;99.90;;;;;;5054347;28;20029;-60
2021/01/02 11:07:13;;;;;;;17.55;7.57;;;6.90;99.20;;;;;;5069125;28;20031;-61
2021/01/02 11:09:42;;;;;;;15.10;7.68;;;7.40;99.90;;;;;;5069222;28;20127;-65
2021/01/02 11:12:08;;;;;;;13.07;7.72;;;7.60;99.90;;;;;;5054655;28;20025;-61
2021/01/02 11:14:38;;;;;;;15.20;9.00;;;7.60;99.80;;;;;;5054912;28;20109;-58
2021/01/02 11:17:05;;;;;;;18.42;7.95;;;7.40;98.80;;;;;;5053489;28;20037;-64
2021/01/02 11:19:31;;;;;;;12.48;7.97;;;7.10;99.20;;;;;;5053413;28;20032;-59
2021/01/02 11:22:00;;;;;;;16.92;8.07;;;6.80;99.00;;;;;;5069117;28;20462;-59
2021/01/02 11:24:28;;;;;;;15.18;7.70;;;6.60;99.60;;;;;;5081508;28;20036;-61
2021/01/02 11:26:57;;;;;;;15.82;8.55;;;6.60;99.90;;;;;;5068949;28;20505;-58
2021/01/02 11:29:25;;;;;;;11.05;7.47;;;6.70;99.70;;;;;;5068441;28;20032;-59
2021/01/02 11:31:51;;;;;;;14.48;7.82;;;6.60;99.80;;;;;;5068316;28;20079;-58
2021/01/02 11:34:17;;;;;;;11.90;7.68;;;6.60;99.40;;;;;;5069269;28;20020;-60
2021/01/02 11:36:46;;;;;;;13.30;6.82;;;6.50;99.50;;;;;;5064047;28;20524;-66
2021/01/02 11:39:12;;;;;;;15.52;7.93;;;6.40;99.70;;;;;;5051307;28;20024;-60
2021/01/02 11:41:40;;;;;;;11.13;7.38;;;6.50;99.20;;;;;;5049950;28;20082;-59
2021/01/02 11:44:09;;;;;;;13.70;8.32;;;6.30;99.70;;;;;;5051079;28;20104;-59
2021/01/02 11:46:47;;;;;;;14.25;7.38;;;6.30;99.60;;;;;;5050255;28;20079;-59
2021/01/02 11:49:16;;;;;;;12.82;7.07;;;6.30;99.50;;;;;;5049632;28;20120;-60
2021/01/02 11:51:45;;;;;;;12.13;6.72;;;6.30;99.90;;;;;;5050090;28;20120;-66
2021/01/02 11:54:11;;;;;;;12.55;7.65;;;6.30;99.90;;;;;;5047849;28;20052;-59
2021/01/02 11:56:37;;;;;;;12.20;7.40;;;6.20;99.90;;;;;;5054972;28;20048;-60
2021/01/02 11:59:03;;;;;;;14.05;7.63;;;6.30;99.90;;;;;;5051341;28;20492;-60
2021/01/02 12:01:38;;;;;;;15.32;7.57;;;6.20;99.90;;;;;;5038556;28;20056;-63
2021/01/02 12:04:07;;;;;;;12.23;7.10;;;6.30;99.90;;;;;;5034616;28;20052;-62
2021/01/02 12:06:33;;;;;;;11.82;7.07;;;6.10;99.90;;;;;;5037745;28;20119;-58
2021/01/02 12:08:59;;;;;;;14.10;9.32;;;6.30;99.90;;;;;;5053377;28;20116;-58
2021/01/02 12:11:35;;;;;;;15.32;7.65;;;6.20;99.90;;;;;;5056835;28;20054;-65
2021/01/02 12:14:01;;;;;;;16.52;7.70;;;6.20;99.90;;;;;;5053491;28;20116;-59
2021/01/02 12:16:34;;;;;;;12.63;7.35;;;6.20;99.90;;;;;;5053879;28;20128;-61
2021/01/02 12:19:02;;;;;;;17.20;8.10;;;6.20;99.90;;;;;;5053414;28;20076;-68
2021/01/02 12:21:27;;;;;;;14.98;9.27;;;6.30;99.90;;;;;;5055071;28;20028;-60
2021/01/02 12:23:53;;;;;;;13.27;8.02;;;6.40;99.90;;;;;;5052320;28;20431;-60
2021/01/02 12:26:19;;;;;;;14.07;7.85;;;6.20;99.90;;;;;;5053290;28;20107;-59
2021/01/02 12:28:46;;;;;;;13.68;7.93;;;6.30;99.90;;;;;;5054046;28;20029;-64
2021/01/02 12:31:18;;;;;;;16.02;7.93;;;6.30;99.90;;;;;;5053731;28;20021;-59
2021/01/02 12:33:44;;;;;;;14.38;7.35;;;6.30;99.90;;;;;;5054767;28;20029;-68
2021/01/02 12:36:11;;;;;;;9.20;6.15;;;6.20;99.90;;;;;;5052201;28;20040;-60
2021/01/02 12:38:41;;;;;;;14.15;7.18;;;6.20;99.90;;;;;;5051398;28;20035;-59
2021/01/02 12:41:16;;;;;;;12.93;7.75;;;6.30;99.90;;;;;;5052978;28;20017;-58
2021/01/02 12:43:45;;;;;;;19.23;6.47;;;6.40;99.90;;;;;;5052621;28;20025;-59
2021/01/02 12:46:11;;;;;;;13.38;7.65;;;6.40;99.90;;;;;;5053217;28;20033;-58
2021/01/02 12:48:38;;;;;;;11.02;6.05;;;6.20;99.90;;;;;;5052941;28;20033;-59
2021/01/02 12:51:06;;;;;;;11.82;6.60;;;6.30;99.90;;;;;;5053399;28;20393;-62
2021/01/02 12:53:31;;;;;;;9.43;5.30;;;6.30;99.90;;;;;;5052909;28;20025;-59
2021/01/02 12:55:57;;;;;;;5.30;2.97;;;5.90;98.90;;;;;;5052051;28;20032;-60
2021/01/02 12:58:23;;;;;;;3.78;2.78;;;5.70;97.50;;;;;;5052400;28;20035;-59
2021/01/02 13:00:49;;;;;;;4.53;2.20;;;5.70;97.70;;;;;;5053557;28;20112;-67